createdAt,value
2023-04-17T00:01:32.623Z,5.60
2023-04-17T00:03:59.398Z,4.88
2023-04-17T00:06:27.533Z,4.03
2023-04-17T00:08:54.402Z,4.57
2023-04-17T00:11:21.480Z,3.58
2023-04-17T00:13:48.160Z,4.63
2023-04-17T00:16:14.992Z,3.72
2023-04-17T00:18:42.012Z,4.38
2023-04-17T00:21:08.910Z,3.17
2023-04-17T00:23:35.963Z,2.50
2023-04-17T00:26:02.966Z,2.60
2023-04-17T00:28:29.851Z,2.17
2023-04-17T00:30:58.569Z,3.45
2023-04-17T00:33:25.481Z,2.28
2023-04-17T00:35:53.398Z,1.42
2023-04-17T00:38:20.113Z,1.60
2023-04-17T00:40:46.760Z,1.50
2023-04-17T00:43:15.834Z,1.33
2023-04-17T00:45:42.829Z,1.00
2023-04-17T00:48:10.983Z,1.02
2023-04-17T00:50:38.217Z,0.70
2023-04-17T00:53:07.542Z,3.50
2023-04-17T00:55:35.516Z,0.93
2023-04-17T00:58:02.433Z,2.70
2023-04-17T01:00:29.117Z,0.90
2023-04-17T01:02:58.537Z,0.90
2023-04-17T01:05:28.435Z,0.73
2023-04-17T01:07:56.722Z,1.70
2023-04-17T01:10:24.211Z,3.35
2023-04-17T01:13:05.554Z,4.47
2023-04-17T01:15:32.729Z,1.13
2023-04-17T01:17:59.499Z,4.22
2023-04-17T01:20:30.133Z,1.02
2023-04-17T01:23:01.190Z,3.25
2023-04-17T01:25:28.611Z,1.30
2023-04-17T01:27:56.570Z,2.33
2023-04-17T01:30:23.626Z,3.83
2023-04-17T01:32:50.784Z,3.63
2023-04-17T01:35:17.478Z,3.28
2023-04-17T01:37:44.314Z,2.08
2023-04-17T01:40:11.603Z,2.78
2023-04-17T01:42:38.360Z,2.22
2023-04-17T01:45:06.095Z,2.33
2023-04-17T01:47:33.056Z,1.40
2023-04-17T01:49:59.785Z,2.47
2023-04-17T01:52:26.764Z,3.10
2023-04-17T01:54:53.365Z,4.97
2023-04-17T01:57:20.174Z,6.55
2023-04-17T01:59:46.925Z,4.68
2023-04-17T02:02:13.770Z,4.00
2023-04-17T02:04:41.027Z,3.75
2023-04-17T02:07:07.686Z,2.38
2023-04-17T02:09:34.431Z,5.45
2023-04-17T02:12:01.901Z,1.75
2023-04-17T02:14:30.863Z,3.33
2023-04-17T02:16:58.083Z,3.65
2023-04-17T02:19:25.386Z,4.30
2023-04-17T02:21:52.084Z,4.82
2023-04-17T02:24:18.665Z,5.80
2023-04-17T02:26:45.681Z,5.68
2023-04-17T02:29:12.527Z,6.35
2023-04-17T02:31:41.652Z,7.03
2023-04-17T02:34:08.401Z,7.07
2023-04-17T02:36:35.512Z,7.28
2023-04-17T02:39:02.483Z,5.70
2023-04-17T02:41:29.428Z,7.05
2023-04-17T02:43:58.044Z,6.53
2023-04-17T02:46:24.736Z,6.65
2023-04-17T02:48:51.632Z,7.93
2023-04-17T02:51:18.625Z,10.60
2023-04-17T02:53:46.261Z,7.53
2023-04-17T02:56:13.251Z,9.43
2023-04-17T02:58:40.258Z,9.95
2023-04-17T03:01:07.067Z,8.73
2023-04-17T03:03:35.612Z,8.27
2023-04-17T03:06:02.599Z,8.75
2023-04-17T03:08:32.548Z,8.80
2023-04-17T03:11:00.094Z,8.50
2023-04-17T03:13:26.747Z,9.32
2023-04-17T03:15:53.296Z,12.25
2023-04-17T03:18:19.903Z,8.52
2023-04-17T03:20:46.623Z,8.23
2023-04-17T03:23:13.421Z,8.88
2023-04-17T03:25:40.318Z,8.43
2023-04-17T03:28:07.335Z,8.88
2023-04-17T03:30:34.057Z,7.07
2023-04-17T03:33:01.023Z,8.57
2023-04-17T03:35:27.653Z,7.70
2023-04-17T03:37:54.246Z,8.90
2023-04-17T03:40:21.308Z,7.63
2023-04-17T03:42:48.333Z,7.55
2023-04-17T03:45:16.904Z,7.93
2023-04-17T03:47:43.700Z,4.82
2023-04-17T03:50:11.035Z,9.48
2023-04-17T03:52:37.708Z,11.95
2023-04-17T03:55:05.079Z,7.88
2023-04-17T03:57:31.851Z,7.53
2023-04-17T03:59:59.075Z,6.82
2023-04-17T04:02:25.963Z,5.75
2023-04-17T04:04:54.139Z,3.28
2023-04-17T04:07:21.591Z,6.03
2023-04-17T04:09:48.345Z,5.78
2023-04-17T04:12:15.434Z,7.05
2023-04-17T04:14:43.154Z,10.68
2023-04-17T04:17:10.353Z,5.72
2023-04-17T04:19:37.314Z,10.90
2023-04-17T04:22:07.403Z,3.92
2023-04-17T04:24:34.552Z,7.45
2023-04-17T04:27:05.647Z,9.40
2023-04-17T04:29:33.583Z,5.93
2023-04-17T04:32:00.307Z,6.60
2023-04-17T04:34:29.983Z,3.58
2023-04-17T04:36:57.484Z,4.95
2023-04-17T04:39:24.156Z,3.55
2023-04-17T04:41:52.068Z,4.18
2023-04-17T04:44:20.136Z,6.00
2023-04-17T04:46:47.446Z,4.45
2023-04-17T04:49:14.658Z,5.68
2023-04-17T04:51:41.704Z,3.80
2023-04-17T04:54:08.404Z,4.00
2023-04-17T04:56:35.083Z,4.68
2023-04-17T04:59:01.773Z,6.32
2023-04-17T05:01:29.959Z,3.78
2023-04-17T05:03:56.825Z,4.03
2023-04-17T05:06:23.700Z,8.10
2023-04-17T05:08:50.429Z,3.65
2023-04-17T05:11:17.290Z,4.55
2023-04-17T05:13:43.921Z,5.53
2023-04-17T05:16:11.000Z,4.80
2023-04-17T05:18:38.694Z,5.65
2023-04-17T05:21:05.860Z,6.38
2023-04-17T05:23:32.669Z,6.43
2023-04-17T05:25:59.635Z,8.48
2023-04-17T05:28:27.427Z,5.20
2023-04-17T05:30:54.100Z,6.43
2023-04-17T05:33:20.918Z,4.70
2023-04-17T05:35:47.678Z,6.20
2023-04-17T05:38:14.343Z,4.13
2023-04-17T05:40:41.037Z,5.15
2023-04-17T05:43:12.155Z,4.30
2023-04-17T05:45:39.276Z,6.85
2023-04-17T05:48:06.312Z,4.80
2023-04-17T05:50:33.441Z,5.78
2023-04-17T05:53:00.690Z,5.20
2023-04-17T05:55:27.537Z,5.63
2023-04-17T05:57:55.634Z,3.58
2023-04-17T06:00:24.865Z,4.30
2023-04-17T06:02:52.385Z,10.13
2023-04-17T06:05:19.704Z,3.92
2023-04-17T06:07:46.756Z,8.02
2023-04-17T06:10:15.611Z,3.72
2023-04-17T06:12:42.860Z,6.45
2023-04-17T06:15:09.878Z,3.75
2023-04-17T06:17:38.120Z,7.55
2023-04-17T06:20:10.613Z,8.98
2023-04-17T06:22:38.459Z,4.28
2023-04-17T06:25:05.952Z,3.08
2023-04-17T06:27:34.495Z,6.72
2023-04-17T06:30:03.299Z,4.65
2023-04-17T06:32:30.169Z,3.55
2023-04-17T06:34:59.568Z,3.85
2023-04-17T06:37:26.980Z,3.53
2023-04-17T06:39:53.576Z,4.20
2023-04-17T06:42:20.713Z,3.80
2023-04-17T06:44:47.380Z,6.20
2023-04-17T06:47:14.296Z,4.38
2023-04-17T06:49:40.914Z,7.20
2023-04-17T06:52:07.664Z,4.43
2023-04-17T06:54:34.429Z,9.52
2023-04-17T06:57:01.198Z,5.13
2023-04-17T06:59:27.946Z,4.78
2023-04-17T07:01:54.883Z,7.10
2023-04-17T07:04:21.621Z,4.05
2023-04-17T07:06:48.241Z,6.18
2023-04-17T07:09:15.314Z,6.15
2023-04-17T07:11:42.049Z,7.28
2023-04-17T07:14:10.961Z,6.57
2023-04-17T07:16:39.846Z,4.90
2023-04-17T07:19:06.495Z,6.85
2023-04-17T07:21:33.515Z,5.20
2023-04-17T07:24:00.554Z,4.32
2023-04-17T07:26:27.244Z,4.18
2023-04-17T07:28:53.943Z,7.72
2023-04-17T07:31:22.242Z,4.90
2023-04-17T07:33:49.374Z,7.28
2023-04-17T07:36:16.335Z,4.85
2023-04-17T07:38:43.227Z,3.20
2023-04-17T07:41:11.751Z,4.18
2023-04-17T07:43:38.864Z,5.05
2023-04-17T07:46:06.180Z,3.35
2023-04-17T07:48:32.969Z,8.43
2023-04-17T07:51:03.713Z,3.08
2023-04-17T07:53:30.850Z,5.72
2023-04-17T07:55:58.431Z,2.78
2023-04-17T07:58:27.317Z,2.65
2023-04-17T08:00:55.492Z,3.60
2023-04-17T08:03:23.023Z,6.18
2023-04-17T08:05:52.195Z,5.85
2023-04-17T08:08:20.158Z,3.65
2023-04-17T08:10:46.843Z,7.43
2023-04-17T08:13:13.584Z,5.93
2023-04-17T08:15:40.845Z,4.32
2023-04-17T08:18:09.692Z,4.80
2023-04-17T08:20:37.317Z,4.05
2023-04-17T08:23:05.570Z,5.45
2023-04-17T08:25:32.356Z,7.13
2023-04-17T08:28:00.660Z,5.65
2023-04-17T08:30:28.628Z,3.78
2023-04-17T08:32:57.634Z,6.03
2023-04-17T08:35:25.748Z,8.00
2023-04-17T08:37:52.670Z,8.88
2023-04-17T08:40:23.433Z,6.97
2023-04-17T08:42:52.256Z,7.30
2023-04-17T08:45:21.033Z,9.05
2023-04-17T08:47:47.909Z,10.07
2023-04-17T08:50:17.948Z,8.55
2023-04-17T08:52:46.938Z,9.68
2023-04-17T08:55:15.303Z,8.43
2023-04-17T08:58:02.009Z,7.00
2023-04-17T09:00:33.719Z,9.18
2023-04-17T09:03:02.139Z,10.75
2023-04-17T09:05:32.410Z,5.78
2023-04-17T09:08:08.136Z,11.43
2023-04-17T09:10:57.256Z,7.47
2023-04-17T09:13:26.137Z,5.82
2023-04-17T09:16:10.280Z,7.97
2023-04-17T09:18:38.022Z,6.20
2023-04-17T09:21:06.031Z,5.80
2023-04-17T09:23:50.242Z,3.70
2023-04-17T09:26:19.592Z,3.70
2023-04-17T09:29:01.374Z,7.28
2023-04-17T09:31:30.623Z,4.78
2023-04-17T09:34:03.265Z,3.83
2023-04-17T09:36:32.265Z,5.68
2023-04-17T09:39:01.299Z,4.47
2023-04-17T09:41:29.931Z,4.35
2023-04-17T09:44:02.160Z,6.53
2023-04-17T09:46:36.792Z,5.35
2023-04-17T09:49:08.330Z,4.53
2023-04-17T09:51:35.436Z,4.47
2023-04-17T09:54:05.931Z,4.38
2023-04-17T09:56:36.501Z,7.30
2023-04-17T09:59:05.173Z,4.43
2023-04-17T10:01:34.227Z,7.35
2023-04-17T10:04:02.289Z,12.20
2023-04-17T10:06:31.617Z,7.53
2023-04-17T10:08:58.717Z,4.65
2023-04-17T10:11:29.986Z,4.72
2023-04-17T10:14:33.199Z,5.10
2023-04-17T10:16:59.864Z,5.95
2023-04-17T10:19:31.279Z,4.40
2023-04-17T10:22:16.773Z,4.45
2023-04-17T10:24:54.998Z,6.35
2023-04-17T10:27:27.527Z,2.88
2023-04-17T10:30:02.540Z,1.85
2023-04-17T10:32:30.122Z,2.30
2023-04-17T10:34:58.350Z,4.63
2023-04-17T10:38:04.233Z,5.22
2023-04-17T10:40:32.608Z,2.58
2023-04-17T10:43:17.957Z,4.22
2023-04-17T10:46:05.900Z,2.92
2023-04-17T10:48:45.229Z,1.98
2023-04-17T10:51:24.186Z,3.10
2023-04-17T10:53:55.788Z,2.53
2023-04-17T10:56:41.608Z,2.92
2023-04-17T10:59:10.889Z,2.88
2023-04-17T11:02:01.711Z,12.93
2023-04-17T11:04:31.194Z,4.80
2023-04-17T11:06:58.904Z,2.50
2023-04-17T11:09:28.098Z,3.08
2023-04-17T11:11:58.294Z,3.47
2023-04-17T11:14:26.479Z,4.07
2023-04-17T11:16:53.631Z,3.55
2023-04-17T11:19:23.403Z,4.32
2023-04-17T11:21:52.476Z,2.38
2023-04-17T11:24:30.088Z,6.95
2023-04-17T11:26:59.952Z,6.38
2023-04-17T11:29:27.242Z,3.75
2023-04-17T11:31:57.212Z,4.32
2023-04-17T11:34:26.054Z,3.95
2023-04-17T11:36:53.597Z,5.85
2023-04-17T11:39:21.888Z,5.18
2023-04-17T11:41:49.596Z,4.90
2023-04-17T11:44:18.229Z,7.68
2023-04-17T11:46:52.466Z,6.10
2023-04-17T11:49:25.724Z,7.22
2023-04-17T11:51:52.580Z,6.88
2023-04-17T11:54:40.216Z,5.35
2023-04-17T11:57:12.584Z,5.25
2023-04-17T11:59:42.582Z,6.88
2023-04-17T12:02:09.802Z,5.22
2023-04-17T12:04:38.266Z,4.30
2023-04-17T12:07:06.720Z,7.63
2023-04-17T12:09:34.686Z,5.05
2023-04-17T12:12:07.125Z,2.97
2023-04-17T12:14:34.143Z,4.97
2023-04-17T12:17:01.394Z,4.35
2023-04-17T12:19:30.014Z,5.70
2023-04-17T12:21:57.348Z,4.63
2023-04-17T12:24:25.186Z,3.58
2023-04-17T12:26:52.904Z,3.80
2023-04-17T12:29:26.461Z,4.05
2023-04-17T12:31:59.729Z,3.58
2023-04-17T12:34:27.809Z,6.20
2023-04-17T12:36:54.760Z,4.80
2023-04-17T12:39:21.569Z,3.42
2023-04-17T12:41:48.354Z,5.18
2023-04-17T12:44:16.010Z,2.75
2023-04-17T12:46:44.285Z,3.33
2023-04-17T12:49:11.227Z,3.63
2023-04-17T12:51:38.400Z,3.55
2023-04-17T12:54:05.418Z,3.22
2023-04-17T12:56:32.405Z,3.85
2023-04-17T12:59:01.260Z,3.17
2023-04-17T13:01:30.830Z,2.28
2023-04-17T13:03:57.798Z,3.47
2023-04-17T13:06:25.216Z,3.72
2023-04-17T13:08:51.954Z,2.22
2023-04-17T13:11:18.856Z,2.75
2023-04-17T13:13:45.526Z,5.45
2023-04-17T13:16:12.313Z,2.80
2023-04-17T13:18:38.918Z,2.08
2023-04-17T13:21:05.760Z,2.03
2023-04-17T13:23:32.447Z,1.50
2023-04-17T13:25:59.320Z,0.82
2023-04-17T13:28:26.018Z,0.77
2023-04-17T13:30:53.204Z,0.93
2023-04-17T13:33:20.042Z,0.77
2023-04-17T13:35:46.721Z,1.02
2023-04-17T13:38:13.422Z,1.80
2023-04-17T13:40:41.034Z,0.55
2023-04-17T13:43:07.741Z,0.85
2023-04-17T13:45:34.334Z,1.10
2023-04-17T13:48:01.511Z,1.15
2023-04-17T13:50:28.336Z,0.80
2023-04-17T13:52:55.149Z,0.93
2023-04-17T13:55:21.871Z,0.80
2023-04-17T13:57:48.912Z,1.08
2023-04-17T14:00:16.069Z,1.60
2023-04-17T14:02:43.439Z,1.45
2023-04-17T14:05:11.824Z,0.77
2023-04-17T14:07:39.213Z,1.67
2023-04-17T14:10:07.154Z,2.42
2023-04-17T14:12:34.111Z,0.50
2023-04-17T14:15:00.863Z,0.57
2023-04-17T14:17:27.879Z,0.60
2023-04-17T14:19:55.136Z,0.68
2023-04-17T14:22:21.966Z,0.47
2023-04-17T14:24:48.649Z,1.23
2023-04-17T14:27:15.353Z,1.73
2023-04-17T14:29:42.272Z,0.93
2023-04-17T14:32:08.838Z,0.80
2023-04-17T14:34:35.425Z,0.70
2023-04-17T14:37:02.118Z,0.70
2023-04-17T14:39:31.271Z,1.30
2023-04-17T14:41:59.707Z,3.03
2023-04-17T14:44:28.657Z,1.75
2023-04-17T14:46:56.884Z,1.38
2023-04-17T14:49:23.796Z,1.05
2023-04-17T14:51:50.402Z,0.98
2023-04-17T14:54:17.022Z,1.63
2023-04-17T14:56:45.378Z,0.95
2023-04-17T14:59:12.376Z,1.63
2023-04-17T15:01:39.266Z,0.80
2023-04-17T15:04:07.287Z,0.80
2023-04-17T15:06:34.537Z,1.15
2023-04-17T15:09:01.112Z,1.52
2023-04-17T15:11:27.837Z,1.33
2023-04-17T15:13:54.471Z,2.88
2023-04-17T15:16:21.429Z,1.02
2023-04-17T15:18:48.225Z,1.92
2023-04-17T15:21:16.644Z,2.20
2023-04-17T15:23:43.242Z,1.65
2023-04-17T15:26:09.874Z,0.90
2023-04-17T15:28:37.156Z,0.90
2023-04-17T15:31:04.020Z,0.70
2023-04-17T15:33:31.425Z,1.10
2023-04-17T15:35:59.658Z,1.63
2023-04-17T15:38:26.955Z,1.20
2023-04-17T15:40:54.490Z,2.75
2023-04-17T15:43:21.448Z,1.50
2023-04-17T15:45:49.320Z,1.25
2023-04-17T15:48:16.151Z,1.88
2023-04-17T15:50:43.514Z,1.25
2023-04-17T15:53:10.565Z,1.80
2023-04-17T15:55:38.549Z,1.15
2023-04-17T15:58:05.774Z,2.15
2023-04-17T16:00:34.094Z,0.60
2023-04-17T16:03:01.086Z,2.83
2023-04-17T16:05:30.314Z,0.70
2023-04-17T16:07:57.524Z,1.55
2023-04-17T16:10:24.686Z,0.73
2023-04-17T16:12:51.766Z,0.88
2023-04-17T16:15:18.620Z,0.40
2023-04-17T16:17:46.150Z,0.40
2023-04-17T16:20:13.153Z,1.38
2023-04-17T16:22:40.489Z,0.40
2023-04-17T16:25:07.801Z,0.50
2023-04-17T16:27:34.651Z,0.50
2023-04-17T16:30:02.478Z,1.60
2023-04-17T16:32:29.216Z,0.50
2023-04-17T16:34:56.310Z,1.80
2023-04-17T16:37:22.982Z,1.10
2023-04-17T16:39:51.091Z,0.40
2023-04-17T16:42:18.323Z,0.50
2023-04-17T16:44:48.383Z,0.60
2023-04-17T16:47:15.201Z,1.80
2023-04-17T16:49:42.858Z,0.52
2023-04-17T16:52:10.168Z,0.70
2023-04-17T16:54:37.380Z,0.60
2023-04-17T16:57:06.136Z,1.25
2023-04-17T16:59:33.302Z,2.25
2023-04-17T17:02:02.564Z,2.38
2023-04-17T17:04:29.997Z,1.33
2023-04-17T17:06:57.066Z,1.02
2023-04-17T17:09:23.746Z,2.17
2023-04-17T17:11:50.637Z,1.63
2023-04-17T17:14:17.304Z,1.52
2023-04-17T17:16:44.053Z,1.70
2023-04-17T17:19:11.100Z,1.80
2023-04-17T17:21:39.596Z,2.17
2023-04-17T17:24:06.450Z,1.25
2023-04-17T17:26:33.355Z,2.10
2023-04-17T17:29:00.427Z,1.88
2023-04-17T17:31:27.037Z,1.98
2023-04-17T17:33:55.092Z,1.52
2023-04-17T17:36:22.174Z,6.22
2023-04-17T17:39:09.805Z,2.88
2023-04-17T17:41:36.910Z,2.45
2023-04-17T17:44:04.950Z,2.35
2023-04-17T17:46:34.349Z,3.45
2023-04-17T17:49:01.437Z,2.40
2023-04-17T17:51:28.025Z,2.53
2023-04-17T17:53:55.996Z,4.93
2023-04-17T17:56:23.593Z,2.45
2023-04-17T17:58:54.017Z,3.45
2023-04-17T18:01:21.642Z,7.93
2023-04-17T18:03:49.967Z,5.03
2023-04-17T18:06:17.081Z,2.95
2023-04-17T18:08:43.753Z,2.97
2023-04-17T18:11:10.458Z,2.78
2023-04-17T18:13:37.083Z,3.72
2023-04-17T18:16:04.511Z,1.58
2023-04-17T18:18:32.499Z,3.90
2023-04-17T18:20:59.109Z,2.50
2023-04-17T18:23:26.294Z,2.00
2023-04-17T18:25:59.906Z,1.88
2023-04-17T18:28:27.325Z,1.45
2023-04-17T18:30:54.607Z,1.58
2023-04-17T18:33:21.279Z,2.40
2023-04-17T18:35:47.894Z,3.63
2023-04-17T18:38:14.977Z,2.85
2023-04-17T18:40:41.684Z,2.42
2023-04-17T18:43:10.485Z,2.47
2023-04-17T18:45:37.165Z,3.25
2023-04-17T18:48:04.094Z,2.10
2023-04-17T18:50:30.881Z,2.25
2023-04-17T18:52:57.582Z,2.38
2023-04-17T18:55:24.736Z,1.80
2023-04-17T18:57:51.360Z,2.13
2023-04-17T19:00:18.151Z,2.13
2023-04-17T19:02:44.808Z,2.30
2023-04-17T19:05:11.580Z,3.10
2023-04-17T19:07:38.573Z,4.18
2023-04-17T19:10:05.712Z,6.68
2023-04-17T19:12:32.371Z,4.88
2023-04-17T19:14:58.958Z,5.32
2023-04-17T19:17:27.126Z,5.30
2023-04-17T19:19:53.799Z,4.78
2023-04-17T19:22:20.496Z,6.63
2023-04-17T19:24:51.260Z,4.70
2023-04-17T19:27:17.927Z,5.15
2023-04-17T19:29:44.993Z,4.22
2023-04-17T19:32:12.195Z,3.53
2023-04-17T19:34:38.837Z,3.63
2023-04-17T19:37:06.083Z,4.00
2023-04-17T19:39:33.026Z,5.57
2023-04-17T19:41:59.674Z,5.20
2023-04-17T19:44:28.037Z,7.43
2023-04-17T19:46:55.676Z,7.78
2023-04-17T19:49:22.328Z,10.95
2023-04-17T19:51:48.979Z,9.20
2023-04-17T19:54:16.039Z,11.27
2023-04-17T19:56:42.775Z,12.85
2023-04-17T19:59:12.595Z,10.68
2023-04-17T20:01:41.497Z,10.23
2023-04-17T20:04:10.926Z,9.50
2023-04-17T20:06:37.851Z,10.30
2023-04-17T20:09:04.844Z,9.52
2023-04-17T20:11:31.849Z,8.65
2023-04-17T20:13:58.733Z,8.27
2023-04-17T20:16:25.591Z,7.80
2023-04-17T20:18:52.427Z,7.57
2023-04-17T20:21:19.255Z,9.02
2023-04-17T20:23:48.217Z,11.18
2023-04-17T20:26:16.053Z,8.57
2023-04-17T20:28:42.731Z,7.38
2023-04-17T20:31:09.642Z,7.13
2023-04-17T20:33:36.349Z,4.57
2023-04-17T20:36:03.499Z,5.70
2023-04-17T20:38:30.230Z,7.63
2023-04-17T20:40:57.211Z,8.10
2023-04-17T20:43:23.943Z,9.85
2023-04-17T20:45:50.747Z,11.32
2023-04-17T20:48:17.496Z,13.38
2023-04-17T20:50:44.148Z,19.30
2023-04-17T20:53:11.039Z,17.58
2023-04-17T20:55:38.221Z,18.00
2023-04-17T20:58:04.956Z,18.63
2023-04-17T21:00:31.808Z,18.15
2023-04-17T21:02:58.467Z,15.75
2023-04-17T21:05:25.209Z,15.40
2023-04-17T21:07:53.324Z,14.40
2023-04-17T21:10:21.077Z,14.57
2023-04-17T21:12:48.186Z,15.25
2023-04-17T21:15:14.968Z,20.13
2023-04-17T21:17:42.417Z,15.15
2023-04-17T21:20:09.872Z,15.70
2023-04-17T21:22:37.466Z,14.95
2023-04-17T21:25:04.499Z,16.30
2023-04-17T21:27:31.182Z,16.73
2023-04-17T21:29:57.990Z,19.83
2023-04-17T21:32:24.743Z,24.75
2023-04-17T21:34:51.412Z,22.67
2023-04-17T21:37:18.026Z,21.80
2023-04-17T21:39:45.237Z,19.98
2023-04-17T21:42:11.917Z,19.25
2023-04-17T21:44:38.700Z,18.55
2023-04-17T21:47:05.383Z,17.30
2023-04-17T21:49:32.070Z,16.73
2023-04-17T21:51:58.770Z,15.80
2023-04-17T21:54:28.238Z,16.48
2023-04-17T21:56:54.852Z,12.73
2023-04-17T21:59:21.697Z,11.90
2023-04-17T22:01:48.408Z,11.25
2023-04-17T22:04:15.283Z,10.25
2023-04-17T22:06:42.496Z,9.68
2023-04-17T22:09:09.139Z,10.43
2023-04-17T22:11:38.463Z,9.88
2023-04-17T22:14:05.387Z,9.55
2023-04-17T22:16:32.172Z,9.40
2023-04-17T22:18:59.108Z,8.70
2023-04-17T22:21:27.321Z,9.75
2023-04-17T22:23:54.255Z,8.98
2023-04-17T22:26:21.439Z,9.88
2023-04-17T22:28:48.237Z,9.68
2023-04-17T22:31:15.910Z,8.93
2023-04-17T22:33:43.493Z,8.55
2023-04-17T22:36:10.207Z,9.13
2023-04-17T22:38:37.239Z,9.52
2023-04-17T22:41:05.238Z,9.55
2023-04-17T22:43:31.823Z,9.82
2023-04-17T22:45:58.914Z,10.00
2023-04-17T22:48:26.031Z,10.60
2023-04-17T22:50:55.731Z,11.35
2023-04-17T22:53:22.927Z,10.57
2023-04-17T22:56:05.637Z,10.63
2023-04-17T22:58:33.997Z,11.27
2023-04-17T23:01:00.938Z,10.50
2023-04-17T23:03:28.009Z,10.50
2023-04-17T23:05:55.373Z,9.70
2023-04-17T23:08:23.654Z,9.32
2023-04-17T23:10:58.332Z,9.82
2023-04-17T23:13:25.900Z,9.13
2023-04-17T23:15:53.280Z,8.23
2023-04-17T23:18:20.162Z,7.82
2023-04-17T23:20:46.836Z,7.00
2023-04-17T23:23:14.195Z,7.03
2023-04-17T23:25:41.015Z,6.85
2023-04-17T23:28:07.808Z,7.63
2023-04-17T23:30:34.720Z,8.02
2023-04-17T23:33:01.419Z,8.00
2023-04-17T23:35:28.459Z,8.45
2023-04-17T23:37:55.235Z,8.48
2023-04-17T23:40:22.031Z,8.85
2023-04-17T23:42:48.765Z,9.18
2023-04-17T23:45:15.644Z,9.80
2023-04-17T23:47:42.490Z,9.20
2023-04-17T23:50:09.559Z,9.70
2023-04-17T23:52:36.604Z,9.15
2023-04-17T23:55:03.962Z,9.80
2023-04-17T23:57:30.885Z,8.50
2023-04-17T23:59:57.611Z,8.40
